sensor_id;sensor_type;location;lat;lon;timestamp;temperature;humidity
4701;DHT22;8724;51.272;6.554;2023-06-14T00:00:07;25.30;79.90
4701;DHT22;8724;51.272;6.554;2023-06-14T00:02:36;25.20;79.80
4701;DHT22;8724;51.272;6.554;2023-06-14T00:05:05;25.20;80.10
4701;DHT22;8724;51.272;6.554;2023-06-14T00:07:35;25.20;79.80
4701;DHT22;8724;51.272;6.554;2023-06-14T00:10:06;25.00;79.70
4701;DHT22;8724;51.272;6.554;2023-06-14T00:12:36;25.20;79.80
4701;DHT22;8724;51.272;6.554;2023-06-14T00:15:06;25.20;79.80
4701;DHT22;8724;51.272;6.554;2023-06-14T00:17:36;25.20;80.20
4701;DHT22;8724;51.272;6.554;2023-06-14T00:20:07;25.10;79.70
4701;DHT22;8724;51.272;6.554;2023-06-14T00:22:36;25.10;79.70
4701;DHT22;8724;51.272;6.554;2023-06-14T00:25:06;25.10;79.80
4701;DHT22;8724;51.272;6.554;2023-06-14T00:27:56;25.10;80.00
4701;DHT22;8724;51.272;6.554;2023-06-14T00:30:25;25.10;80.20
4701;DHT22;8724;51.272;6.554;2023-06-14T00:32:58;25.10;80.40
4701;DHT22;8724;51.272;6.554;2023-06-14T00:35:26;25.10;80.60
4701;DHT22;8724;51.272;6.554;2023-06-14T00:37:57;25.10;80.90
4701;DHT22;8724;51.272;6.554;2023-06-14T00:40:26;25.00;80.90
4701;DHT22;8724;51.272;6.554;2023-06-14T00:42:56;25.00;80.80
4701;DHT22;8724;51.272;6.554;2023-06-14T00:45:24;25.00;80.90
4701;DHT22;8724;51.272;6.554;2023-06-14T00:47:53;25.00;81.10
4701;DHT22;8724;51.272;6.554;2023-06-14T00:50:23;25.00;81.30
4701;DHT22;8724;51.272;6.554;2023-06-14T00:52:51;24.90;81.30
4701;DHT22;8724;51.272;6.554;2023-06-14T00:55:20;25.00;81.10
4701;DHT22;8724;51.272;6.554;2023-06-14T00:57:49;24.90;81.50
4701;DHT22;8724;51.272;6.554;2023-06-14T01:00:19;24.90;81.50
4701;DHT22;8724;51.272;6.554;2023-06-14T01:02:48;24.90;81.30
4701;DHT22;8724;51.272;6.554;2023-06-14T01:05:17;24.90;81.20
4701;DHT22;8724;51.272;6.554;2023-06-14T01:08:05;24.80;81.00
4701;DHT22;8724;51.272;6.554;2023-06-14T01:10:40;24.80;81.10
4701;DHT22;8724;51.272;6.554;2023-06-14T01:13:14;24.80;81.40
4701;DHT22;8724;51.272;6.554;2023-06-14T01:15:48;24.80;81.50
4701;DHT22;8724;51.272;6.554;2023-06-14T01:18:17;24.80;81.60
4701;DHT22;8724;51.272;6.554;2023-06-14T01:20:47;24.80;81.60
4701;DHT22;8724;51.272;6.554;2023-06-14T01:23:18;24.80;82.70
4701;DHT22;8724;51.272;6.554;2023-06-14T01:25:48;24.70;82.20
4701;DHT22;8724;51.272;6.554;2023-06-14T01:28:21;24.70;82.20
4701;DHT22;8724;51.272;6.554;2023-06-14T01:30:50;24.70;82.30
4701;DHT22;8724;51.272;6.554;2023-06-14T01:33:22;24.70;82.50
4701;DHT22;8724;51.272;6.554;2023-06-14T01:35:51;24.70;82.60
4701;DHT22;8724;51.272;6.554;2023-06-14T01:38:23;24.60;82.40
4701;DHT22;8724;51.272;6.554;2023-06-14T01:40:54;24.60;82.50
4701;DHT22;8724;51.272;6.554;2023-06-14T01:43:25;24.60;82.70
4701;DHT22;8724;51.272;6.554;2023-06-14T01:45:55;24.60;82.90
4701;DHT22;8724;51.272;6.554;2023-06-14T01:48:27;24.60;83.00
4701;DHT22;8724;51.272;6.554;2023-06-14T01:50:55;24.50;83.20
4701;DHT22;8724;51.272;6.554;2023-06-14T01:53:25;24.50;83.30
4701;DHT22;8724;51.272;6.554;2023-06-14T01:55:53;24.50;83.40
4701;DHT22;8724;51.272;6.554;2023-06-14T01:58:22;24.50;83.50
4701;DHT22;8724;51.272;6.554;2023-06-14T02:00:51;24.50;83.60
4701;DHT22;8724;51.272;6.554;2023-06-14T02:03:22;24.50;83.80
4701;DHT22;8724;51.272;6.554;2023-06-14T02:05:52;24.50;84.00
4701;DHT22;8724;51.272;6.554;2023-06-14T02:08:21;24.40;84.00
4701;DHT22;8724;51.272;6.554;2023-06-14T02:10:52;24.40;84.20
4701;DHT22;8724;51.272;6.554;2023-06-14T02:13:21;24.40;84.30
4701;DHT22;8724;51.272;6.554;2023-06-14T02:15:50;24.40;84.50
4701;DHT22;8724;51.272;6.554;2023-06-14T02:18:22;24.30;84.50
4701;DHT22;8724;51.272;6.554;2023-06-14T02:20:50;24.30;84.70
4701;DHT22;8724;51.272;6.554;2023-06-14T02:23:19;24.30;84.80
4701;DHT22;8724;51.272;6.554;2023-06-14T02:25:48;24.20;84.80
4701;DHT22;8724;51.272;6.554;2023-06-14T02:28:17;24.20;84.80
4701;DHT22;8724;51.272;6.554;2023-06-14T02:30:46;24.20;84.90
4701;DHT22;8724;51.272;6.554;2023-06-14T02:33:15;24.20;85.10
4701;DHT22;8724;51.272;6.554;2023-06-14T02:35:44;24.20;84.90
4701;DHT22;8724;51.272;6.554;2023-06-14T02:38:13;24.10;85.00
4701;DHT22;8724;51.272;6.554;2023-06-14T02:40:41;24.10;85.10
4701;DHT22;8724;51.272;6.554;2023-06-14T02:43:10;24.10;85.20
4701;DHT22;8724;51.272;6.554;2023-06-14T02:45:40;24.10;85.40
4701;DHT22;8724;51.272;6.554;2023-06-14T02:48:08;24.10;85.50
4701;DHT22;8724;51.272;6.554;2023-06-14T02:50:40;24.00;85.50
4701;DHT22;8724;51.272;6.554;2023-06-14T02:53:08;24.00;85.60
4701;DHT22;8724;51.272;6.554;2023-06-14T02:55:37;24.00;85.90
4701;DHT22;8724;51.272;6.554;2023-06-14T02:58:08;23.90;85.80
4701;DHT22;8724;51.272;6.554;2023-06-14T03:00:37;23.90;85.80
4701;DHT22;8724;51.272;6.554;2023-06-14T03:03:10;23.90;86.00
4701;DHT22;8724;51.272;6.554;2023-06-14T03:05:47;23.90;86.10
4701;DHT22;8724;51.272;6.554;2023-06-14T03:08:20;23.90;86.80
4701;DHT22;8724;51.272;6.554;2023-06-14T03:10:51;23.80;86.20
4701;DHT22;8724;51.272;6.554;2023-06-14T03:13:20;23.80;86.20
4701;DHT22;8724;51.272;6.554;2023-06-14T03:15:51;23.70;86.40
4701;DHT22;8724;51.272;6.554;2023-06-14T03:18:23;23.70;86.30
4701;DHT22;8724;51.272;6.554;2023-06-14T03:20:55;23.70;86.40
4701;DHT22;8724;51.272;6.554;2023-06-14T03:23:27;23.70;86.60
4701;DHT22;8724;51.272;6.554;2023-06-14T03:25:55;23.70;86.70
4701;DHT22;8724;51.272;6.554;2023-06-14T03:28:24;23.60;86.70
4701;DHT22;8724;51.272;6.554;2023-06-14T03:30:54;23.60;86.80
4701;DHT22;8724;51.272;6.554;2023-06-14T03:33:25;23.60;86.70
4701;DHT22;8724;51.272;6.554;2023-06-14T03:35:55;23.50;87.00
4701;DHT22;8724;51.272;6.554;2023-06-14T03:38:24;23.50;87.00
4701;DHT22;8724;51.272;6.554;2023-06-14T03:40:52;23.50;87.10
4701;DHT22;8724;51.272;6.554;2023-06-14T03:43:21;23.50;87.30
4701;DHT22;8724;51.272;6.554;2023-06-14T03:45:50;23.50;87.40
4701;DHT22;8724;51.272;6.554;2023-06-14T03:48:19;23.40;87.20
4701;DHT22;8724;51.272;6.554;2023-06-14T03:50:49;23.40;87.50
4701;DHT22;8724;51.272;6.554;2023-06-14T03:53:17;23.40;87.40
4701;DHT22;8724;51.272;6.554;2023-06-14T03:55:49;23.40;87.40
4701;DHT22;8724;51.272;6.554;2023-06-14T03:58:28;23.30;87.30
4701;DHT22;8724;51.272;6.554;2023-06-14T04:00:57;23.30;87.40
4701;DHT22;8724;51.272;6.554;2023-06-14T04:03:26;23.30;87.40
4701;DHT22;8724;51.272;6.554;2023-06-14T04:05:59;23.10;87.40
4701;DHT22;8724;51.272;6.554;2023-06-14T04:08:27;23.30;87.60
4701;DHT22;8724;51.272;6.554;2023-06-14T04:10:58;23.30;87.90
4701;DHT22;8724;51.272;6.554;2023-06-14T04:13:26;23.30;88.00
4701;DHT22;8724;51.272;6.554;2023-06-14T04:15:55;23.30;88.00
4701;DHT22;8724;51.272;6.554;2023-06-14T04:18:29;23.30;87.90
4701;DHT22;8724;51.272;6.554;2023-06-14T04:20:59;23.30;88.00
4701;DHT22;8724;51.272;6.554;2023-06-14T04:23:28;23.20;88.10
4701;DHT22;8724;51.272;6.554;2023-06-14T04:25:57;23.20;88.40
4701;DHT22;8724;51.272;6.554;2023-06-14T04:28:29;23.20;88.60
4701;DHT22;8724;51.272;6.554;2023-06-14T04:31:00;23.20;88.90
4701;DHT22;8724;51.272;6.554;2023-06-14T04:33:31;23.20;88.90
4701;DHT22;8724;51.272;6.554;2023-06-14T04:36:02;23.20;89.20
4701;DHT22;8724;51.272;6.554;2023-06-14T04:38:31;23.10;88.90
4701;DHT22;8724;51.272;6.554;2023-06-14T04:41:02;23.20;89.40
4701;DHT22;8724;51.272;6.554;2023-06-14T04:43:31;23.20;89.80
4701;DHT22;8724;51.272;6.554;2023-06-14T04:46:06;23.10;89.90
4701;DHT22;8724;51.272;6.554;2023-06-14T04:48:39;23.20;90.10
4701;DHT22;8724;51.272;6.554;2023-06-14T04:51:11;23.10;90.00
4701;DHT22;8724;51.272;6.554;2023-06-14T04:53:40;23.10;90.20
4701;DHT22;8724;51.272;6.554;2023-06-14T04:56:08;23.10;90.60
4701;DHT22;8724;51.272;6.554;2023-06-14T04:58:38;23.10;90.20
4701;DHT22;8724;51.272;6.554;2023-06-14T05:01:07;23.10;90.30
4701;DHT22;8724;51.272;6.554;2023-06-14T05:03:36;23.10;90.20
4701;DHT22;8724;51.272;6.554;2023-06-14T05:06:05;23.10;90.20
4701;DHT22;8724;51.272;6.554;2023-06-14T05:08:35;23.10;90.10
4701;DHT22;8724;51.272;6.554;2023-06-14T05:11:03;23.10;90.10
4701;DHT22;8724;51.272;6.554;2023-06-14T05:13:32;23.20;90.00
4701;DHT22;8724;51.272;6.554;2023-06-14T05:16:01;23.20;90.00
4701;DHT22;8724;51.272;6.554;2023-06-14T05:18:30;23.20;90.00
4701;DHT22;8724;51.272;6.554;2023-06-14T05:21:01;23.20;90.00
4701;DHT22;8724;51.272;6.554;2023-06-14T05:23:31;23.20;90.00
4701;DHT22;8724;51.272;6.554;2023-06-14T05:26:00;23.20;90.00
4701;DHT22;8724;51.272;6.554;2023-06-14T05:28:30;23.20;90.00
4701;DHT22;8724;51.272;6.554;2023-06-14T05:30:58;23.20;90.10
4701;DHT22;8724;51.272;6.554;2023-06-14T05:33:27;23.20;90.20
4701;DHT22;8724;51.272;6.554;2023-06-14T05:35:55;23.20;90.10
4701;DHT22;8724;51.272;6.554;2023-06-14T05:38:24;23.20;90.20
4701;DHT22;8724;51.272;6.554;2023-06-14T05:40:52;23.20;90.30
4701;DHT22;8724;51.272;6.554;2023-06-14T05:43:22;23.20;90.30
4701;DHT22;8724;51.272;6.554;2023-06-14T05:45:51;23.20;90.50
4701;DHT22;8724;51.272;6.554;2023-06-14T05:48:21;23.20;90.50
4701;DHT22;8724;51.272;6.554;2023-06-14T05:50:50;23.20;90.40
4701;DHT22;8724;51.272;6.554;2023-06-14T05:53:18;23.30;90.40
4701;DHT22;8724;51.272;6.554;2023-06-14T05:55:47;23.30;90.50
4701;DHT22;8724;51.272;6.554;2023-06-14T05:58:15;23.30;90.50
4701;DHT22;8724;51.272;6.554;2023-06-14T06:00:45;23.30;90.60
4701;DHT22;8724;51.272;6.554;2023-06-14T06:03:14;23.30;90.70
4701;DHT22;8724;51.272;6.554;2023-06-14T06:05:42;23.30;90.80
4701;DHT22;8724;51.272;6.554;2023-06-14T06:08:11;23.30;90.80
4701;DHT22;8724;51.272;6.554;2023-06-14T06:10:40;23.30;90.60
4701;DHT22;8724;51.272;6.554;2023-06-14T06:13:09;23.40;90.60
4701;DHT22;8724;51.272;6.554;2023-06-14T06:15:38;23.30;90.80
4701;DHT22;8724;51.272;6.554;2023-06-14T06:18:08;23.40;90.60
4701;DHT22;8724;51.272;6.554;2023-06-14T06:20:36;23.40;90.60
4701;DHT22;8724;51.272;6.554;2023-06-14T06:23:05;23.40;90.60
4701;DHT22;8724;51.272;6.554;2023-06-14T06:25:34;23.40;90.60
4701;DHT22;8724;51.272;6.554;2023-06-14T06:28:03;23.40;90.60
4701;DHT22;8724;51.272;6.554;2023-06-14T06:30:32;23.40;90.60
4701;DHT22;8724;51.272;6.554;2023-06-14T06:33:00;23.50;90.60
4701;DHT22;8724;51.272;6.554;2023-06-14T06:35:30;23.50;90.60
4701;DHT22;8724;51.272;6.554;2023-06-14T06:38:00;23.50;90.50
4701;DHT22;8724;51.272;6.554;2023-06-14T06:40:29;23.50;90.70
4701;DHT22;8724;51.272;6.554;2023-06-14T06:42:57;23.50;90.90
4701;DHT22;8724;51.272;6.554;2023-06-14T06:45:27;23.50;90.70
4701;DHT22;8724;51.272;6.554;2023-06-14T06:47:55;23.50;90.90
4701;DHT22;8724;51.272;6.554;2023-06-14T06:50:24;23.60;91.00
4701;DHT22;8724;51.272;6.554;2023-06-14T06:52:54;23.60;90.90
4701;DHT22;8724;51.272;6.554;2023-06-14T06:55:22;23.70;91.00
4701;DHT22;8724;51.272;6.554;2023-06-14T06:57:51;23.70;91.20
4701;DHT22;8724;51.272;6.554;2023-06-14T07:00:21;23.70;90.90
4701;DHT22;8724;51.272;6.554;2023-06-14T07:02:50;23.70;90.90
4701;DHT22;8724;51.272;6.554;2023-06-14T07:05:19;23.70;90.60
4701;DHT22;8724;51.272;6.554;2023-06-14T07:07:48;23.70;90.30
4701;DHT22;8724;51.272;6.554;2023-06-14T07:10:18;23.80;90.40
4701;DHT22;8724;51.272;6.554;2023-06-14T07:12:46;23.80;90.10
4701;DHT22;8724;51.272;6.554;2023-06-14T07:15:15;23.80;90.30
4701;DHT22;8724;51.272;6.554;2023-06-14T07:17:43;23.80;90.30
4701;DHT22;8724;51.272;6.554;2023-06-14T07:20:13;23.90;90.40
4701;DHT22;8724;51.272;6.554;2023-06-14T07:22:43;23.80;90.00
4701;DHT22;8724;51.272;6.554;2023-06-14T07:25:12;23.90;89.80
4701;DHT22;8724;51.272;6.554;2023-06-14T07:27:45;23.90;90.20
4701;DHT22;8724;51.272;6.554;2023-06-14T07:30:14;23.90;90.00
4701;DHT22;8724;51.272;6.554;2023-06-14T07:32:42;23.90;89.60
4701;DHT22;8724;51.272;6.554;2023-06-14T07:35:11;23.90;89.10
4701;DHT22;8724;51.272;6.554;2023-06-14T07:37:40;23.90;88.20
4701;DHT22;8724;51.272;6.554;2023-06-14T07:40:10;24.00;88.50
4701;DHT22;8724;51.272;6.554;2023-06-14T07:42:38;24.00;88.40
4701;DHT22;8724;51.272;6.554;2023-06-14T07:45:09;24.00;88.40
4701;DHT22;8724;51.272;6.554;2023-06-14T07:47:38;24.00;88.20
4701;DHT22;8724;51.272;6.554;2023-06-14T07:50:07;24.00;87.80
4701;DHT22;8724;51.272;6.554;2023-06-14T07:52:37;24.00;87.30
4701;DHT22;8724;51.272;6.554;2023-06-14T07:55:06;24.10;86.60
4701;DHT22;8724;51.272;6.554;2023-06-14T07:57:34;24.10;86.40
4701;DHT22;8724;51.272;6.554;2023-06-14T08:00:04;24.10;86.50
4701;DHT22;8724;51.272;6.554;2023-06-14T08:02:43;24.10;86.10
4701;DHT22;8724;51.272;6.554;2023-06-14T08:05:13;24.10;86.00
4701;DHT22;8724;51.272;6.554;2023-06-14T08:07:42;24.10;86.00
4701;DHT22;8724;51.272;6.554;2023-06-14T08:10:11;24.10;85.90
4701;DHT22;8724;51.272;6.554;2023-06-14T08:12:40;24.10;86.30
4701;DHT22;8724;51.272;6.554;2023-06-14T08:15:09;24.10;86.20
4701;DHT22;8724;51.272;6.554;2023-06-14T08:17:44;24.10;86.40
4701;DHT22;8724;51.272;6.554;2023-06-14T08:20:13;24.10;85.70
4701;DHT22;8724;51.272;6.554;2023-06-14T08:22:44;24.20;85.80
4701;DHT22;8724;51.272;6.554;2023-06-14T08:25:14;24.10;85.30
4701;DHT22;8724;51.272;6.554;2023-06-14T08:27:43;24.10;85.20
4701;DHT22;8724;51.272;6.554;2023-06-14T08:30:12;24.20;85.00
4701;DHT22;8724;51.272;6.554;2023-06-14T08:32:42;24.20;84.90
4701;DHT22;8724;51.272;6.554;2023-06-14T08:35:11;24.20;85.30
4701;DHT22;8724;51.272;6.554;2023-06-14T08:37:39;24.20;84.80
4701;DHT22;8724;51.272;6.554;2023-06-14T08:40:19;24.20;84.40
4701;DHT22;8724;51.272;6.554;2023-06-14T08:42:51;24.20;84.20
4701;DHT22;8724;51.272;6.554;2023-06-14T08:45:20;24.20;84.30
4701;DHT22;8724;51.272;6.554;2023-06-14T08:47:54;24.20;84.30
4701;DHT22;8724;51.272;6.554;2023-06-14T08:50:28;24.30;84.60
4701;DHT22;8724;51.272;6.554;2023-06-14T08:53:01;24.30;84.00
4701;DHT22;8724;51.272;6.554;2023-06-14T08:55:31;24.30;84.10
4701;DHT22;8724;51.272;6.554;2023-06-14T08:58:04;24.30;83.90
4701;DHT22;8724;51.272;6.554;2023-06-14T09:00:33;24.30;83.90
4701;DHT22;8724;51.272;6.554;2023-06-14T09:03:03;24.30;84.00
4701;DHT22;8724;51.272;6.554;2023-06-14T09:05:33;24.30;83.90
4701;DHT22;8724;51.272;6.554;2023-06-14T09:08:01;24.30;84.20
4701;DHT22;8724;51.272;6.554;2023-06-14T09:10:33;24.00;84.10
4701;DHT22;8724;51.272;6.554;2023-06-14T09:13:05;24.30;83.90
4701;DHT22;8724;51.272;6.554;2023-06-14T09:15:35;24.30;84.60
4701;DHT22;8724;51.272;6.554;2023-06-14T09:18:05;24.30;85.10
4701;DHT22;8724;51.272;6.554;2023-06-14T09:20:35;24.30;84.90
4701;DHT22;8724;51.272;6.554;2023-06-14T09:23:04;24.30;84.90
4701;DHT22;8724;51.272;6.554;2023-06-14T09:25:41;24.30;84.60
4701;DHT22;8724;51.272;6.554;2023-06-14T09:28:11;24.30;84.80
4701;DHT22;8724;51.272;6.554;2023-06-14T09:30:40;24.30;85.10
4701;DHT22;8724;51.272;6.554;2023-06-14T09:33:10;24.30;85.40
4701;DHT22;8724;51.272;6.554;2023-06-14T09:35:39;24.30;85.50
4701;DHT22;8724;51.272;6.554;2023-06-14T09:38:08;24.30;85.70
4701;DHT22;8724;51.272;6.554;2023-06-14T09:40:37;24.30;86.00
4701;DHT22;8724;51.272;6.554;2023-06-14T09:43:06;24.40;85.30
4701;DHT22;8724;51.272;6.554;2023-06-14T09:45:38;24.30;85.30
4701;DHT22;8724;51.272;6.554;2023-06-14T09:48:09;24.30;85.70
4701;DHT22;8724;51.272;6.554;2023-06-14T09:50:39;24.30;86.50
4701;DHT22;8724;51.272;6.554;2023-06-14T09:53:10;24.40;86.60
4701;DHT22;8724;51.272;6.554;2023-06-14T09:55:41;24.30;86.80
4701;DHT22;8724;51.272;6.554;2023-06-14T09:58:10;24.40;86.70
4701;DHT22;8724;51.272;6.554;2023-06-14T10:00:40;24.40;86.50
4701;DHT22;8724;51.272;6.554;2023-06-14T10:03:14;24.40;86.10
4701;DHT22;8724;51.272;6.554;2023-06-14T10:05:45;24.40;86.40
4701;DHT22;8724;51.272;6.554;2023-06-14T10:08:17;24.40;86.30
4701;DHT22;8724;51.272;6.554;2023-06-14T10:10:46;24.40;86.30
4701;DHT22;8724;51.272;6.554;2023-06-14T10:13:16;24.40;86.40
4701;DHT22;8724;51.272;6.554;2023-06-14T10:15:53;24.40;86.10
4701;DHT22;8724;51.272;6.554;2023-06-14T10:18:45;24.40;86.00
4701;DHT22;8724;51.272;6.554;2023-06-14T10:21:21;24.40;86.40
4701;DHT22;8724;51.272;6.554;2023-06-14T10:23:56;24.40;86.70
4701;DHT22;8724;51.272;6.554;2023-06-14T10:26:28;24.50;86.60
4701;DHT22;8724;51.272;6.554;2023-06-14T10:28:59;24.40;86.90
4701;DHT22;8724;51.272;6.554;2023-06-14T10:31:41;24.40;86.50
4701;DHT22;8724;51.272;6.554;2023-06-14T10:34:12;24.40;86.60
4701;DHT22;8724;51.272;6.554;2023-06-14T10:36:42;24.40;86.70
4701;DHT22;8724;51.272;6.554;2023-06-14T10:39:15;24.50;86.60
4701;DHT22;8724;51.272;6.554;2023-06-14T10:41:52;24.50;86.60
4701;DHT22;8724;51.272;6.554;2023-06-14T10:44:43;24.50;86.70
4701;DHT22;8724;51.272;6.554;2023-06-14T10:47:24;24.50;86.60
4701;DHT22;8724;51.272;6.554;2023-06-14T10:49:55;24.50;86.40
4701;DHT22;8724;51.272;6.554;2023-06-14T10:52:26;24.50;86.20
4701;DHT22;8724;51.272;6.554;2023-06-14T10:55:07;24.50;86.10
4701;DHT22;8724;51.272;6.554;2023-06-14T10:57:41;24.50;86.00
4701;DHT22;8724;51.272;6.554;2023-06-14T11:00:13;24.50;86.00
4701;DHT22;8724;51.272;6.554;2023-06-14T11:02:53;24.50;86.10
4701;DHT22;8724;51.272;6.554;2023-06-14T11:05:28;24.60;86.00
4701;DHT22;8724;51.272;6.554;2023-06-14T11:11:06;24.60;86.20
4701;DHT22;8724;51.272;6.554;2023-06-14T11:13:37;24.60;85.80
4701;DHT22;8724;51.272;6.554;2023-06-14T11:16:10;24.60;85.40
4701;DHT22;8724;51.272;6.554;2023-06-14T11:18:41;24.40;85.10
4701;DHT22;8724;51.272;6.554;2023-06-14T11:21:11;24.60;85.50
4701;DHT22;8724;51.272;6.554;2023-06-14T11:23:49;24.60;85.60
4701;DHT22;8724;51.272;6.554;2023-06-14T11:26:24;24.70;85.20
4701;DHT22;8724;51.272;6.554;2023-06-14T11:28:58;24.70;85.20
4701;DHT22;8724;51.272;6.554;2023-06-14T11:31:27;24.70;85.00
4701;DHT22;8724;51.272;6.554;2023-06-14T11:33:58;24.70;84.90
4701;DHT22;8724;51.272;6.554;2023-06-14T11:36:28;24.70;84.90
4701;DHT22;8724;51.272;6.554;2023-06-14T11:38:59;24.70;84.80
4701;DHT22;8724;51.272;6.554;2023-06-14T11:41:37;24.80;85.10
4701;DHT22;8724;51.272;6.554;2023-06-14T11:44:06;24.80;85.10
4701;DHT22;8724;51.272;6.554;2023-06-14T11:46:35;24.80;85.10
4701;DHT22;8724;51.272;6.554;2023-06-14T11:49:04;24.80;85.10
4701;DHT22;8724;51.272;6.554;2023-06-14T11:51:36;24.90;84.80
4701;DHT22;8724;51.272;6.554;2023-06-14T11:54:06;24.90;84.60
4701;DHT22;8724;51.272;6.554;2023-06-14T11:56:36;24.90;84.60
4701;DHT22;8724;51.272;6.554;2023-06-14T11:59:05;24.90;84.80
4701;DHT22;8724;51.272;6.554;2023-06-14T12:01:36;25.00;85.00
4701;DHT22;8724;51.272;6.554;2023-06-14T12:04:07;25.00;85.00
4701;DHT22;8724;51.272;6.554;2023-06-14T12:06:37;25.10;85.00
4701;DHT22;8724;51.272;6.554;2023-06-14T12:09:07;25.00;84.80
4701;DHT22;8724;51.272;6.554;2023-06-14T12:11:40;25.10;85.10
4701;DHT22;8724;51.272;6.554;2023-06-14T12:14:09;25.10;85.30
4701;DHT22;8724;51.272;6.554;2023-06-14T12:16:39;25.10;85.70
4701;DHT22;8724;51.272;6.554;2023-06-14T12:19:13;25.10;85.90
4701;DHT22;8724;51.272;6.554;2023-06-14T12:21:46;25.10;86.10
4701;DHT22;8724;51.272;6.554;2023-06-14T12:24:16;25.10;86.40
4701;DHT22;8724;51.272;6.554;2023-06-14T12:26:45;25.10;86.40
4701;DHT22;8724;51.272;6.554;2023-06-14T12:29:14;25.20;87.10
4701;DHT22;8724;51.272;6.554;2023-06-14T12:31:43;25.20;86.40
4701;DHT22;8724;51.272;6.554;2023-06-14T12:34:11;25.20;86.30
4701;DHT22;8724;51.272;6.554;2023-06-14T12:36:40;25.20;86.40
4701;DHT22;8724;51.272;6.554;2023-06-14T12:39:13;25.30;86.70
4701;DHT22;8724;51.272;6.554;2023-06-14T12:41:42;25.30;87.00
4701;DHT22;8724;51.272;6.554;2023-06-14T12:44:11;25.30;87.00
4701;DHT22;8724;51.272;6.554;2023-06-14T12:46:40;25.40;87.20
4701;DHT22;8724;51.272;6.554;2023-06-14T12:49:11;25.40;87.30
4701;DHT22;8724;51.272;6.554;2023-06-14T12:51:40;25.40;87.10
4701;DHT22;8724;51.272;6.554;2023-06-14T12:54:09;25.50;86.10
4701;DHT22;8724;51.272;6.554;2023-06-14T12:56:39;25.50;85.70
4701;DHT22;8724;51.272;6.554;2023-06-14T12:59:08;25.50;85.90
4701;DHT22;8724;51.272;6.554;2023-06-14T13:01:38;25.50;86.00
4701;DHT22;8724;51.272;6.554;2023-06-14T13:04:07;25.60;86.20
4701;DHT22;8724;51.272;6.554;2023-06-14T13:06:35;25.60;86.50
4701;DHT22;8724;51.272;6.554;2023-06-14T13:09:04;25.60;86.40
4701;DHT22;8724;51.272;6.554;2023-06-14T13:11:33;25.70;86.70
4701;DHT22;8724;51.272;6.554;2023-06-14T13:14:03;25.70;86.90
4701;DHT22;8724;51.272;6.554;2023-06-14T13:16:51;25.70;87.10
4701;DHT22;8724;51.272;6.554;2023-06-14T13:19:19;25.80;87.40
4701;DHT22;8724;51.272;6.554;2023-06-14T13:21:48;25.80;87.10
4701;DHT22;8724;51.272;6.554;2023-06-14T13:24:17;25.80;87.00
4701;DHT22;8724;51.272;6.554;2023-06-14T13:26:46;25.90;87.20
4701;DHT22;8724;51.272;6.554;2023-06-14T13:29:16;25.90;87.20
4701;DHT22;8724;51.272;6.554;2023-06-14T13:31:44;26.00;87.20
4701;DHT22;8724;51.272;6.554;2023-06-14T13:34:13;26.00;87.20
4701;DHT22;8724;51.272;6.554;2023-06-14T13:36:41;26.00;88.20
4701;DHT22;8724;51.272;6.554;2023-06-14T13:39:10;26.00;87.40
4701;DHT22;8724;51.272;6.554;2023-06-14T13:41:39;26.10;87.50
4701;DHT22;8724;51.272;6.554;2023-06-14T13:44:07;26.10;87.60
4701;DHT22;8724;51.272;6.554;2023-06-14T13:46:41;26.10;87.50
4701;DHT22;8724;51.272;6.554;2023-06-14T13:49:11;26.20;87.10
4701;DHT22;8724;51.272;6.554;2023-06-14T13:51:39;26.20;87.00
4701;DHT22;8724;51.272;6.554;2023-06-14T13:54:08;26.20;87.10
4701;DHT22;8724;51.272;6.554;2023-06-14T13:56:37;26.30;87.30
4701;DHT22;8724;51.272;6.554;2023-06-14T13:59:06;26.30;87.30
4701;DHT22;8724;51.272;6.554;2023-06-14T14:01:34;26.10;87.30
4701;DHT22;8724;51.272;6.554;2023-06-14T14:04:04;26.40;87.50
4701;DHT22;8724;51.272;6.554;2023-06-14T14:06:33;26.50;87.60
4701;DHT22;8724;51.272;6.554;2023-06-14T14:09:02;26.40;87.50
4701;DHT22;8724;51.272;6.554;2023-06-14T14:11:31;26.50;87.50
4701;DHT22;8724;51.272;6.554;2023-06-14T14:14:00;26.50;87.20
4701;DHT22;8724;51.272;6.554;2023-06-14T14:16:29;26.60;87.30
4701;DHT22;8724;51.272;6.554;2023-06-14T14:18:58;26.60;87.20
4701;DHT22;8724;51.272;6.554;2023-06-14T14:21:28;26.60;87.20
4701;DHT22;8724;51.272;6.554;2023-06-14T14:23:56;26.60;87.20
4701;DHT22;8724;51.272;6.554;2023-06-14T14:26:26;26.60;87.20
4701;DHT22;8724;51.272;6.554;2023-06-14T14:28:54;26.70;87.30
4701;DHT22;8724;51.272;6.554;2023-06-14T14:31:23;26.70;87.30
4701;DHT22;8724;51.272;6.554;2023-06-14T14:33:51;26.70;87.30
4701;DHT22;8724;51.272;6.554;2023-06-14T14:36:20;26.80;87.50
4701;DHT22;8724;51.272;6.554;2023-06-14T14:38:49;26.80;87.50
4701;DHT22;8724;51.272;6.554;2023-06-14T14:41:19;26.80;87.20
4701;DHT22;8724;51.272;6.554;2023-06-14T14:43:47;26.80;88.00
4701;DHT22;8724;51.272;6.554;2023-06-14T14:46:16;26.80;87.30
4701;DHT22;8724;51.272;6.554;2023-06-14T14:48:45;26.90;87.50
4701;DHT22;8724;51.272;6.554;2023-06-14T14:51:13;26.90;87.50
4701;DHT22;8724;51.272;6.554;2023-06-14T14:53:42;26.90;87.50
4701;DHT22;8724;51.272;6.554;2023-06-14T14:56:11;26.90;87.50
4701;DHT22;8724;51.272;6.554;2023-06-14T14:58:40;26.90;87.40
4701;DHT22;8724;51.272;6.554;2023-06-14T15:01:08;27.00;87.50
4701;DHT22;8724;51.272;6.554;2023-06-14T15:03:38;27.00;87.60
4701;DHT22;8724;51.272;6.554;2023-06-14T15:06:25;27.00;87.50
4701;DHT22;8724;51.272;6.554;2023-06-14T15:08:53;27.10;87.50
4701;DHT22;8724;51.272;6.554;2023-06-14T15:11:23;27.10;88.40
4701;DHT22;8724;51.272;6.554;2023-06-14T15:13:51;27.20;87.70
4701;DHT22;8724;51.272;6.554;2023-06-14T15:16:20;27.30;87.70
4701;DHT22;8724;51.272;6.554;2023-06-14T15:18:48;27.40;87.50
4701;DHT22;8724;51.272;6.554;2023-06-14T15:21:17;27.50;87.40
4701;DHT22;8724;51.272;6.554;2023-06-14T15:23:46;27.60;87.30
4701;DHT22;8724;51.272;6.554;2023-06-14T15:26:14;27.90;87.30
4701;DHT22;8724;51.272;6.554;2023-06-14T15:28:44;28.00;86.90
4701;DHT22;8724;51.272;6.554;2023-06-14T15:31:13;28.20;86.70
4701;DHT22;8724;51.272;6.554;2023-06-14T15:33:41;28.40;86.30
4701;DHT22;8724;51.272;6.554;2023-06-14T15:36:10;28.70;85.90
4701;DHT22;8724;51.272;6.554;2023-06-14T15:38:38;28.90;85.40
4701;DHT22;8724;51.272;6.554;2023-06-14T15:41:07;29.00;84.90
4701;DHT22;8724;51.272;6.554;2023-06-14T15:43:35;29.10;84.60
4701;DHT22;8724;51.272;6.554;2023-06-14T15:46:05;29.20;84.10
4701;DHT22;8724;51.272;6.554;2023-06-14T15:48:34;29.30;83.80
4701;DHT22;8724;51.272;6.554;2023-06-14T15:51:02;29.40;83.40
4701;DHT22;8724;51.272;6.554;2023-06-14T15:53:31;29.50;83.30
4701;DHT22;8724;51.272;6.554;2023-06-14T15:55:59;29.50;82.90
4701;DHT22;8724;51.272;6.554;2023-06-14T15:58:27;29.60;82.80
4701;DHT22;8724;51.272;6.554;2023-06-14T16:00:56;29.60;82.50
4701;DHT22;8724;51.272;6.554;2023-06-14T16:03:26;29.70;82.30
4701;DHT22;8724;51.272;6.554;2023-06-14T16:05:54;29.80;81.90
4701;DHT22;8724;51.272;6.554;2023-06-14T16:08:23;29.80;81.70
4701;DHT22;8724;51.272;6.554;2023-06-14T16:11:07;29.90;81.40
4701;DHT22;8724;51.272;6.554;2023-06-14T16:13:36;29.90;81.30
4701;DHT22;8724;51.272;6.554;2023-06-14T16:16:05;29.90;81.10
4701;DHT22;8724;51.272;6.554;2023-06-14T16:18:35;29.80;81.70
4701;DHT22;8724;51.272;6.554;2023-06-14T16:21:03;29.80;81.00
4701;DHT22;8724;51.272;6.554;2023-06-14T16:23:33;29.70;80.70